sensor_id;sensor_type;location;lat;lon;timestamp;P1;durP1;ratioP1;P2;durP2;ratioP2
33108;SDS011;19481;51.118;6.940;2023-10-31T00:00:11;0.70;;;0.70;;
33108;SDS011;19481;51.118;6.940;2023-10-31T00:05:13;0.60;;;0.60;;
33108;SDS011;19481;51.118;6.940;2023-10-31T00:10:16;0.80;;;0.80;;
33108;SDS011;19481;51.118;6.940;2023-10-31T00:15:18;0.88;;;0.88;;
33108;SDS011;19481;51.118;6.940;2023-10-31T00:20:20;0.90;;;0.90;;
33108;SDS011;19481;51.118;6.940;2023-10-31T00:25:23;1.10;;;1.10;;
33108;SDS011;19481;51.118;6.940;2023-10-31T00:30:24;1.02;;;0.95;;
33108;SDS011;19481;51.118;6.940;2023-10-31T00:35:26;0.93;;;0.93;;
33108;SDS011;19481;51.118;6.940;2023-10-31T00:40:29;1.10;;;1.10;;
33108;SDS011;19481;51.118;6.940;2023-10-31T00:45:30;1.00;;;1.00;;
33108;SDS011;19481;51.118;6.940;2023-10-31T00:50:32;0.90;;;0.90;;
33108;SDS011;19481;51.118;6.940;2023-10-31T00:55:35;1.00;;;1.00;;
33108;SDS011;19481;51.118;6.940;2023-10-31T01:00:37;0.90;;;0.90;;
33108;SDS011;19481;51.118;6.940;2023-10-31T01:05:39;2.08;;;1.15;;
33108;SDS011;19481;51.118;6.940;2023-10-31T01:10:42;0.88;;;0.88;;
33108;SDS011;19481;51.118;6.940;2023-10-31T01:15:43;1.00;;;1.00;;
33108;SDS011;19481;51.118;6.940;2023-10-31T01:20:45;0.90;;;0.90;;
33108;SDS011;19481;51.118;6.940;2023-10-31T01:25:48;0.95;;;0.95;;
33108;SDS011;19481;51.118;6.940;2023-10-31T01:30:49;0.85;;;0.85;;
33108;SDS011;19481;51.118;6.940;2023-10-31T01:35:51;1.25;;;0.90;;
33108;SDS011;19481;51.118;6.940;2023-10-31T01:40:54;1.75;;;0.90;;
33108;SDS011;19481;51.118;6.940;2023-10-31T01:45:56;0.70;;;0.70;;
33108;SDS011;19481;51.118;6.940;2023-10-31T01:50:58;0.95;;;0.77;;
33108;SDS011;19481;51.118;6.940;2023-10-31T01:56:02;0.70;;;0.70;;
33108;SDS011;19481;51.118;6.940;2023-10-31T02:01:05;1.52;;;1.00;;
33108;SDS011;19481;51.118;6.940;2023-10-31T02:06:07;0.70;;;0.70;;
33108;SDS011;19481;51.118;6.940;2023-10-31T02:11:10;0.68;;;0.68;;
33108;SDS011;19481;51.118;6.940;2023-10-31T02:16:12;0.95;;;0.95;;
33108;SDS011;19481;51.118;6.940;2023-10-31T02:21:14;0.80;;;0.80;;
33108;SDS011;19481;51.118;6.940;2023-10-31T02:26:17;1.00;;;0.95;;
33108;SDS011;19481;51.118;6.940;2023-10-31T02:31:18;0.85;;;0.85;;
33108;SDS011;19481;51.118;6.940;2023-10-31T02:36:20;0.70;;;0.70;;
33108;SDS011;19481;51.118;6.940;2023-10-31T02:41:24;0.70;;;0.70;;
33108;SDS011;19481;51.118;6.940;2023-10-31T02:46:26;2.30;;;0.82;;
33108;SDS011;19481;51.118;6.940;2023-10-31T02:51:27;0.90;;;0.90;;
33108;SDS011;19481;51.118;6.940;2023-10-31T02:56:30;0.80;;;0.80;;
33108;SDS011;19481;51.118;6.940;2023-10-31T03:01:32;0.70;;;0.70;;
33108;SDS011;19481;51.118;6.940;2023-10-31T03:06:33;1.38;;;1.00;;
33108;SDS011;19481;51.118;6.940;2023-10-31T03:11:37;1.58;;;1.13;;
33108;SDS011;19481;51.118;6.940;2023-10-31T03:16:38;1.00;;;1.00;;
33108;SDS011;19481;51.118;6.940;2023-10-31T03:21:40;0.82;;;0.80;;
33108;SDS011;19481;51.118;6.940;2023-10-31T03:26:43;1.20;;;0.70;;
33108;SDS011;19481;51.118;6.940;2023-10-31T03:31:44;0.95;;;0.90;;
33108;SDS011;19481;51.118;6.940;2023-10-31T03:36:46;0.80;;;0.80;;
33108;SDS011;19481;51.118;6.940;2023-10-31T03:41:49;1.15;;;1.10;;
33108;SDS011;19481;51.118;6.940;2023-10-31T03:46:51;0.80;;;0.80;;
33108;SDS011;19481;51.118;6.940;2023-10-31T03:51:52;0.70;;;0.70;;
33108;SDS011;19481;51.118;6.940;2023-10-31T03:56:55;0.98;;;0.98;;
33108;SDS011;19481;51.118;6.940;2023-10-31T04:01:57;0.77;;;0.70;;
33108;SDS011;19481;51.118;6.940;2023-10-31T04:06:58;0.70;;;0.70;;
33108;SDS011;19481;51.118;6.940;2023-10-31T04:12:01;1.08;;;0.82;;
33108;SDS011;19481;51.118;6.940;2023-10-31T04:17:04;0.70;;;0.70;;
33108;SDS011;19481;51.118;6.940;2023-10-31T04:22:05;0.80;;;0.80;;
33108;SDS011;19481;51.118;6.940;2023-10-31T04:27:08;0.93;;;0.82;;
33108;SDS011;19481;51.118;6.940;2023-10-31T04:32:10;0.70;;;0.70;;
33108;SDS011;19481;51.118;6.940;2023-10-31T04:37:11;0.60;;;0.60;;
33108;SDS011;19481;51.118;6.940;2023-10-31T04:42:15;0.80;;;0.80;;
33108;SDS011;19481;51.118;6.940;2023-10-31T04:47:16;0.70;;;0.70;;
33108;SDS011;19481;51.118;6.940;2023-10-31T04:52:18;0.65;;;0.65;;
33108;SDS011;19481;51.118;6.940;2023-10-31T04:57:24;0.80;;;0.80;;
33108;SDS011;19481;51.118;6.940;2023-10-31T05:02:25;0.57;;;0.57;;
33108;SDS011;19481;51.118;6.940;2023-10-31T05:07:28;1.00;;;1.00;;
33108;SDS011;19481;51.118;6.940;2023-10-31T05:12:31;0.80;;;0.80;;
33108;SDS011;19481;51.118;6.940;2023-10-31T05:17:33;1.08;;;0.98;;
33108;SDS011;19481;51.118;6.940;2023-10-31T05:22:35;0.80;;;0.80;;
33108;SDS011;19481;51.118;6.940;2023-10-31T05:27:38;1.08;;;0.93;;
33108;SDS011;19481;51.118;6.940;2023-10-31T05:32:40;0.80;;;0.80;;
33108;SDS011;19481;51.118;6.940;2023-10-31T05:37:42;0.80;;;0.80;;
33108;SDS011;19481;51.118;6.940;2023-10-31T05:42:45;1.13;;;0.90;;
33108;SDS011;19481;51.118;6.940;2023-10-31T05:47:47;0.77;;;0.77;;
33108;SDS011;19481;51.118;6.940;2023-10-31T05:52:48;0.65;;;0.65;;
33108;SDS011;19481;51.118;6.940;2023-10-31T05:57:51;1.15;;;1.00;;
33108;SDS011;19481;51.118;6.940;2023-10-31T06:02:53;0.80;;;0.80;;
33108;SDS011;19481;51.118;6.940;2023-10-31T06:07:54;1.00;;;1.00;;
33108;SDS011;19481;51.118;6.940;2023-10-31T06:12:57;0.93;;;0.93;;
33108;SDS011;19481;51.118;6.940;2023-10-31T06:17:59;1.15;;;1.05;;
33108;SDS011;19481;51.118;6.940;2023-10-31T06:23:00;0.90;;;0.90;;
33108;SDS011;19481;51.118;6.940;2023-10-31T06:28:04;1.35;;;1.25;;
33108;SDS011;19481;51.118;6.940;2023-10-31T06:33:06;0.85;;;0.85;;
33108;SDS011;19481;51.118;6.940;2023-10-31T06:38:08;1.67;;;1.20;;
33108;SDS011;19481;51.118;6.940;2023-10-31T06:43:11;1.00;;;1.00;;
33108;SDS011;19481;51.118;6.940;2023-10-31T06:48:13;0.77;;;0.77;;
33108;SDS011;19481;51.118;6.940;2023-10-31T06:53:15;1.83;;;1.33;;
33108;SDS011;19481;51.118;6.940;2023-10-31T06:58:18;1.05;;;0.95;;
33108;SDS011;19481;51.118;6.940;2023-10-31T07:03:19;1.45;;;1.20;;
33108;SDS011;19481;51.118;6.940;2023-10-31T07:08:21;1.10;;;1.10;;
33108;SDS011;19481;51.118;6.940;2023-10-31T07:13:24;1.30;;;1.20;;
33108;SDS011;19481;51.118;6.940;2023-10-31T07:18:26;1.17;;;1.08;;
33108;SDS011;19481;51.118;6.940;2023-10-31T07:23:27;1.38;;;1.27;;
33108;SDS011;19481;51.118;6.940;2023-10-31T07:28:30;1.35;;;1.30;;
33108;SDS011;19481;51.118;6.940;2023-10-31T07:33:32;1.42;;;1.33;;
33108;SDS011;19481;51.118;6.940;2023-10-31T07:38:34;1.13;;;1.08;;
33108;SDS011;19481;51.118;6.940;2023-10-31T07:43:38;1.67;;;1.58;;
33108;SDS011;19481;51.118;6.940;2023-10-31T07:48:39;1.48;;;1.38;;
33108;SDS011;19481;51.118;6.940;2023-10-31T07:53:41;1.35;;;1.20;;
33108;SDS011;19481;51.118;6.940;2023-10-31T07:58:44;2.83;;;1.30;;
33108;SDS011;19481;51.118;6.940;2023-10-31T08:03:45;1.20;;;1.10;;
33108;SDS011;19481;51.118;6.940;2023-10-31T08:08:47;3.20;;;1.33;;
33108;SDS011;19481;51.118;6.940;2023-10-31T08:13:51;1.55;;;1.45;;
33108;SDS011;19481;51.118;6.940;2023-10-31T08:18:53;1.30;;;1.20;;
33108;SDS011;19481;51.118;6.940;2023-10-31T08:23:55;1.23;;;1.10;;
33108;SDS011;19481;51.118;6.940;2023-10-31T08:28:58;1.30;;;1.20;;
33108;SDS011;19481;51.118;6.940;2023-10-31T08:34:00;1.17;;;1.10;;
33108;SDS011;19481;51.118;6.940;2023-10-31T08:39:01;0.85;;;0.85;;
33108;SDS011;19481;51.118;6.940;2023-10-31T08:44:05;1.25;;;1.17;;
33108;SDS011;19481;51.118;6.940;2023-10-31T08:49:07;0.93;;;0.93;;
33108;SDS011;19481;51.118;6.940;2023-10-31T08:54:09;1.10;;;1.10;;
33108;SDS011;19481;51.118;6.940;2023-10-31T08:59:12;1.40;;;1.30;;
33108;SDS011;19481;51.118;6.940;2023-10-31T09:04:14;1.13;;;1.02;;
33108;SDS011;19481;51.118;6.940;2023-10-31T09:09:16;1.30;;;1.20;;
33108;SDS011;19481;51.118;6.940;2023-10-31T09:14:19;0.88;;;0.88;;
33108;SDS011;19481;51.118;6.940;2023-10-31T09:19:21;1.10;;;1.10;;
33108;SDS011;19481;51.118;6.940;2023-10-31T09:24:22;0.80;;;0.80;;
33108;SDS011;19481;51.118;6.940;2023-10-31T09:29:26;3.15;;;0.88;;
33108;SDS011;19481;51.118;6.940;2023-10-31T09:34:28;0.93;;;0.90;;
33108;SDS011;19481;51.118;6.940;2023-10-31T09:39:29;1.05;;;0.95;;
33108;SDS011;19481;51.118;6.940;2023-10-31T09:44:32;0.70;;;0.70;;
33108;SDS011;19481;51.118;6.940;2023-10-31T09:49:34;1.00;;;0.88;;
33108;SDS011;19481;51.118;6.940;2023-10-31T09:54:35;1.02;;;0.93;;
33108;SDS011;19481;51.118;6.940;2023-10-31T09:59:40;0.85;;;0.82;;
33108;SDS011;19481;51.118;6.940;2023-10-31T10:04:42;0.77;;;0.77;;
33108;SDS011;19481;51.118;6.940;2023-10-31T10:09:44;0.70;;;0.70;;
33108;SDS011;19481;51.118;6.940;2023-10-31T10:14:47;0.88;;;0.88;;
33108;SDS011;19481;51.118;6.940;2023-10-31T10:19:51;0.80;;;0.80;;
33108;SDS011;19481;51.118;6.940;2023-10-31T10:25:06;3.83;;;0.82;;
33108;SDS011;19481;51.118;6.940;2023-10-31T10:30:10;0.70;;;0.70;;
33108;SDS011;19481;51.118;6.940;2023-10-31T10:35:13;0.85;;;0.70;;
33108;SDS011;19481;51.118;6.940;2023-10-31T10:40:15;0.80;;;0.60;;
33108;SDS011;19481;51.118;6.940;2023-10-31T10:45:19;1.33;;;0.70;;
33108;SDS011;19481;51.118;6.940;2023-10-31T10:50:21;1.70;;;0.70;;
33108;SDS011;19481;51.118;6.940;2023-10-31T10:55:28;0.60;;;0.60;;
33108;SDS011;19481;51.118;6.940;2023-10-31T11:00:35;1.00;;;0.90;;
33108;SDS011;19481;51.118;6.940;2023-10-31T11:05:37;0.70;;;0.70;;
33108;SDS011;19481;51.118;6.940;2023-10-31T11:10:39;3.30;;;0.80;;
33108;SDS011;19481;51.118;6.940;2023-10-31T11:15:43;0.63;;;0.63;;
33108;SDS011;19481;51.118;6.940;2023-10-31T11:20:45;0.77;;;0.73;;
33108;SDS011;19481;51.118;6.940;2023-10-31T11:25:49;0.60;;;0.60;;
33108;SDS011;19481;51.118;6.940;2023-10-31T11:30:54;0.70;;;0.70;;
33108;SDS011;19481;51.118;6.940;2023-10-31T11:36:01;0.95;;;0.70;;
33108;SDS011;19481;51.118;6.940;2023-10-31T11:41:04;0.60;;;0.60;;
33108;SDS011;19481;51.118;6.940;2023-10-31T11:46:15;0.50;;;0.50;;
33108;SDS011;19481;51.118;6.940;2023-10-31T11:51:19;0.50;;;0.50;;
33108;SDS011;19481;51.118;6.940;2023-10-31T11:56:21;0.63;;;0.57;;
33108;SDS011;19481;51.118;6.940;2023-10-31T12:01:24;0.40;;;0.40;;
33108;SDS011;19481;51.118;6.940;2023-10-31T12:06:26;0.90;;;0.45;;
33108;SDS011;19481;51.118;6.940;2023-10-31T12:11:27;0.50;;;0.50;;
33108;SDS011;19481;51.118;6.940;2023-10-31T12:16:31;0.60;;;0.60;;
33108;SDS011;19481;51.118;6.940;2023-10-31T12:21:35;0.50;;;0.50;;
33108;SDS011;19481;51.118;6.940;2023-10-31T12:26:38;0.60;;;0.60;;
33108;SDS011;19481;51.118;6.940;2023-10-31T12:31:44;0.60;;;0.60;;
33108;SDS011;19481;51.118;6.940;2023-10-31T12:36:47;0.70;;;0.70;;
33108;SDS011;19481;51.118;6.940;2023-10-31T12:41:50;0.50;;;0.50;;
33108;SDS011;19481;51.118;6.940;2023-10-31T12:46:53;0.60;;;0.60;;
33108;SDS011;19481;51.118;6.940;2023-10-31T12:51:56;0.75;;;0.60;;
33108;SDS011;19481;51.118;6.940;2023-10-31T12:56:59;0.68;;;0.68;;
33108;SDS011;19481;51.118;6.940;2023-10-31T13:02:03;0.90;;;0.60;;
33108;SDS011;19481;51.118;6.940;2023-10-31T13:07:06;0.80;;;0.50;;
33108;SDS011;19481;51.118;6.940;2023-10-31T13:12:08;0.45;;;0.45;;
33108;SDS011;19481;51.118;6.940;2023-10-31T13:17:13;1.08;;;0.60;;
33108;SDS011;19481;51.118;6.940;2023-10-31T13:22:14;0.57;;;0.57;;
33108;SDS011;19481;51.118;6.940;2023-10-31T13:27:16;0.85;;;0.60;;
33108;SDS011;19481;51.118;6.940;2023-10-31T13:32:19;1.77;;;0.70;;
33108;SDS011;19481;51.118;6.940;2023-10-31T13:37:21;2.65;;;0.80;;
33108;SDS011;19481;51.118;6.940;2023-10-31T13:42:23;0.55;;;0.55;;
33108;SDS011;19481;51.118;6.940;2023-10-31T13:47:27;0.50;;;0.50;;
33108;SDS011;19481;51.118;6.940;2023-10-31T13:52:29;0.50;;;0.50;;
33108;SDS011;19481;51.118;6.940;2023-10-31T13:57:31;0.50;;;0.50;;
33108;SDS011;19481;51.118;6.940;2023-10-31T14:02:34;0.50;;;0.50;;
33108;SDS011;19481;51.118;6.940;2023-10-31T14:07:36;0.40;;;0.40;;
33108;SDS011;19481;51.118;6.940;2023-10-31T14:12:38;0.57;;;0.50;;
33108;SDS011;19481;51.118;6.940;2023-10-31T14:17:41;2.55;;;0.55;;
33108;SDS011;19481;51.118;6.940;2023-10-31T14:22:46;0.57;;;0.57;;
33108;SDS011;19481;51.118;6.940;2023-10-31T14:27:48;0.43;;;0.43;;
33108;SDS011;19481;51.118;6.940;2023-10-31T14:32:51;0.50;;;0.50;;
33108;SDS011;19481;51.118;6.940;2023-10-31T14:37:53;0.75;;;0.50;;
33108;SDS011;19481;51.118;6.940;2023-10-31T14:42:54;0.47;;;0.47;;
33108;SDS011;19481;51.118;6.940;2023-10-31T14:47:57;0.35;;;0.35;;
33108;SDS011;19481;51.118;6.940;2023-10-31T14:52:59;0.80;;;0.55;;
33108;SDS011;19481;51.118;6.940;2023-10-31T14:58:01;1.95;;;0.73;;
33108;SDS011;19481;51.118;6.940;2023-10-31T15:03:04;0.50;;;0.50;;
33108;SDS011;19481;51.118;6.940;2023-10-31T15:08:05;2.55;;;0.50;;
33108;SDS011;19481;51.118;6.940;2023-10-31T15:13:07;0.55;;;0.55;;
33108;SDS011;19481;51.118;6.940;2023-10-31T15:18:10;0.50;;;0.50;;
33108;SDS011;19481;51.118;6.940;2023-10-31T15:23:12;2.20;;;0.85;;
33108;SDS011;19481;51.118;6.940;2023-10-31T15:28:15;0.40;;;0.40;;
33108;SDS011;19481;51.118;6.940;2023-10-31T15:33:18;0.50;;;0.50;;
33108;SDS011;19481;51.118;6.940;2023-10-31T15:38:20;0.52;;;0.52;;
33108;SDS011;19481;51.118;6.940;2023-10-31T15:43:22;0.50;;;0.50;;
33108;SDS011;19481;51.118;6.940;2023-10-31T15:48:25;0.50;;;0.50;;
33108;SDS011;19481;51.118;6.940;2023-10-31T15:53:27;0.75;;;0.60;;
33108;SDS011;19481;51.118;6.940;2023-10-31T15:58:28;0.70;;;0.70;;
33108;SDS011;19481;51.118;6.940;2023-10-31T16:03:31;0.60;;;0.60;;
33108;SDS011;19481;51.118;6.940;2023-10-31T16:08:33;0.80;;;0.80;;
33108;SDS011;19481;51.118;6.940;2023-10-31T16:13:39;0.50;;;0.50;;
33108;SDS011;19481;51.118;6.940;2023-10-31T16:18:43;0.63;;;0.63;;
33108;SDS011;19481;51.118;6.940;2023-10-31T16:23:45;0.50;;;0.50;;
33108;SDS011;19481;51.118;6.940;2023-10-31T16:28:48;0.60;;;0.60;;
33108;SDS011;19481;51.118;6.940;2023-10-31T16:33:51;0.40;;;0.40;;
33108;SDS011;19481;51.118;6.940;2023-10-31T16:38:53;0.50;;;0.50;;
33108;SDS011;19481;51.118;6.940;2023-10-31T16:43:55;0.55;;;0.55;;
33108;SDS011;19481;51.118;6.940;2023-10-31T16:48:58;0.75;;;0.75;;
33108;SDS011;19481;51.118;6.940;2023-10-31T16:54:00;0.50;;;0.50;;
33108;SDS011;19481;51.118;6.940;2023-10-31T16:59:01;0.68;;;0.65;;
33108;SDS011;19481;51.118;6.940;2023-10-31T17:04:05;0.65;;;0.65;;
33108;SDS011;19481;51.118;6.940;2023-10-31T17:09:06;0.70;;;0.70;;
33108;SDS011;19481;51.118;6.940;2023-10-31T17:14:08;3.80;;;0.80;;
33108;SDS011;19481;51.118;6.940;2023-10-31T17:19:11;0.60;;;0.60;;
33108;SDS011;19481;51.118;6.940;2023-10-31T17:24:13;0.70;;;0.70;;
33108;SDS011;19481;51.118;6.940;2023-10-31T17:29:15;0.63;;;0.63;;
33108;SDS011;19481;51.118;6.940;2023-10-31T17:34:18;0.95;;;0.70;;
33108;SDS011;19481;51.118;6.940;2023-10-31T17:39:19;0.75;;;0.75;;
33108;SDS011;19481;51.118;6.940;2023-10-31T17:44:21;0.68;;;0.68;;
33108;SDS011;19481;51.118;6.940;2023-10-31T17:49:26;2.03;;;0.70;;
33108;SDS011;19481;51.118;6.940;2023-10-31T17:54:27;0.60;;;0.60;;
33108;SDS011;19481;51.118;6.940;2023-10-31T17:59:31;2.13;;;0.80;;
33108;SDS011;19481;51.118;6.940;2023-10-31T18:04:34;0.70;;;0.70;;
33108;SDS011;19481;51.118;6.940;2023-10-31T18:09:36;0.73;;;0.70;;
33108;SDS011;19481;51.118;6.940;2023-10-31T18:14:37;0.50;;;0.50;;
33108;SDS011;19481;51.118;6.940;2023-10-31T18:19:40;0.65;;;0.65;;
33108;SDS011;19481;51.118;6.940;2023-10-31T18:24:42;0.80;;;0.80;;
33108;SDS011;19481;51.118;6.940;2023-10-31T18:29:43;0.70;;;0.70;;
33108;SDS011;19481;51.118;6.940;2023-10-31T18:34:47;0.70;;;0.70;;
33108;SDS011;19481;51.118;6.940;2023-10-31T18:39:48;0.70;;;0.70;;
33108;SDS011;19481;51.118;6.940;2023-10-31T18:44:50;0.60;;;0.60;;
33108;SDS011;19481;51.118;6.940;2023-10-31T18:49:53;1.35;;;0.80;;
33108;SDS011;19481;51.118;6.940;2023-10-31T18:54:55;1.00;;;0.90;;
33108;SDS011;19481;51.118;6.940;2023-10-31T18:59:59;0.60;;;0.60;;
33108;SDS011;19481;51.118;6.940;2023-10-31T19:05:04;0.80;;;0.80;;
33108;SDS011;19481;51.118;6.940;2023-10-31T19:10:06;1.30;;;1.20;;
33108;SDS011;19481;51.118;6.940;2023-10-31T19:15:09;0.77;;;0.77;;
33108;SDS011;19481;51.118;6.940;2023-10-31T19:20:12;0.70;;;0.70;;
33108;SDS011;19481;51.118;6.940;2023-10-31T19:25:15;0.90;;;0.90;;
33108;SDS011;19481;51.118;6.940;2023-10-31T19:30:17;1.10;;;1.10;;
33108;SDS011;19481;51.118;6.940;2023-10-31T19:35:20;1.00;;;1.00;;
33108;SDS011;19481;51.118;6.940;2023-10-31T19:40:23;2.47;;;2.03;;
33108;SDS011;19481;51.118;6.940;2023-10-31T19:45:27;1.95;;;1.08;;
33108;SDS011;19481;51.118;6.940;2023-10-31T19:50:31;0.80;;;0.80;;
33108;SDS011;19481;51.118;6.940;2023-10-31T19:55:32;0.82;;;0.82;;
33108;SDS011;19481;51.118;6.940;2023-10-31T20:00:34;0.90;;;0.90;;
33108;SDS011;19481;51.118;6.940;2023-10-31T20:05:37;2.30;;;1.00;;
33108;SDS011;19481;51.118;6.940;2023-10-31T20:10:40;1.75;;;0.70;;
33108;SDS011;19481;51.118;6.940;2023-10-31T20:15:42;1.02;;;0.93;;
33108;SDS011;19481;51.118;6.940;2023-10-31T20:20:45;1.63;;;1.13;;
33108;SDS011;19481;51.118;6.940;2023-10-31T20:25:46;0.90;;;0.90;;
33108;SDS011;19481;51.118;6.940;2023-10-31T20:30:48;1.00;;;1.00;;
33108;SDS011;19481;51.118;6.940;2023-10-31T20:35:51;1.02;;;1.02;;
33108;SDS011;19481;51.118;6.940;2023-10-31T20:40:52;0.77;;;0.77;;
33108;SDS011;19481;51.118;6.940;2023-10-31T20:45:54;1.00;;;1.00;;
33108;SDS011;19481;51.118;6.940;2023-10-31T20:50:57;0.85;;;0.85;;
33108;SDS011;19481;51.118;6.940;2023-10-31T20:55:59;3.13;;;0.80;;
33108;SDS011;19481;51.118;6.940;2023-10-31T21:01:03;0.80;;;0.80;;
33108;SDS011;19481;51.118;6.940;2023-10-31T21:06:06;1.13;;;0.90;;
33108;SDS011;19481;51.118;6.940;2023-10-31T21:11:08;0.73;;;0.73;;
33108;SDS011;19481;51.118;6.940;2023-10-31T21:16:10;0.73;;;0.73;;
33108;SDS011;19481;51.118;6.940;2023-10-31T21:21:13;2.13;;;1.85;;
33108;SDS011;19481;51.118;6.940;2023-10-31T21:26:15;6.57;;;2.67;;
33108;SDS011;19481;51.118;6.940;2023-10-31T21:31:16;4.03;;;1.30;;
33108;SDS011;19481;51.118;6.940;2023-10-31T21:36:19;1.10;;;1.10;;
33108;SDS011;19481;51.118;6.940;2023-10-31T21:41:22;0.95;;;0.95;;
33108;SDS011;19481;51.118;6.940;2023-10-31T21:46:24;0.93;;;0.82;;
33108;SDS011;19481;51.118;6.940;2023-10-31T21:51:27;4.53;;;0.90;;
33108;SDS011;19481;51.118;6.940;2023-10-31T21:56:28;0.70;;;0.70;;
33108;SDS011;19481;51.118;6.940;2023-10-31T22:01:30;1.95;;;1.00;;
33108;SDS011;19481;51.118;6.940;2023-10-31T22:06:33;0.85;;;0.85;;
33108;SDS011;19481;51.118;6.940;2023-10-31T22:11:34;1.00;;;0.80;;
33108;SDS011;19481;51.118;6.940;2023-10-31T22:16:36;1.55;;;1.00;;
33108;SDS011;19481;51.118;6.940;2023-10-31T22:21:39;0.82;;;0.82;;
33108;SDS011;19481;51.118;6.940;2023-10-31T22:26:40;0.70;;;0.70;;
33108;SDS011;19481;51.118;6.940;2023-10-31T22:31:42;1.30;;;0.90;;
33108;SDS011;19481;51.118;6.940;2023-10-31T22:36:45;2.15;;;1.30;;
33108;SDS011;19481;51.118;6.940;2023-10-31T22:41:47;0.80;;;0.80;;
33108;SDS011;19481;51.118;6.940;2023-10-31T22:46:48;0.70;;;0.70;;
33108;SDS011;19481;51.118;6.940;2023-10-31T22:51:51;3.60;;;1.10;;
33108;SDS011;19481;51.118;6.940;2023-10-31T22:56:53;1.10;;;0.90;;
33108;SDS011;19481;51.118;6.940;2023-10-31T23:01:55;0.82;;;0.70;;
33108;SDS011;19481;51.118;6.940;2023-10-31T23:06:57;2.15;;;1.35;;
33108;SDS011;19481;51.118;6.940;2023-10-31T23:11:59;0.90;;;0.90;;
33108;SDS011;19481;51.118;6.940;2023-10-31T23:17:01;0.60;;;0.60;;
33108;SDS011;19481;51.118;6.940;2023-10-31T23:22:05;0.68;;;0.68;;
33108;SDS011;19481;51.118;6.940;2023-10-31T23:27:06;2.05;;;0.80;;
33108;SDS011;19481;51.118;6.940;2023-10-31T23:32:08;0.65;;;0.65;;
33108;SDS011;19481;51.118;6.940;2023-10-31T23:37:11;0.70;;;0.70;;
33108;SDS011;19481;51.118;6.940;2023-10-31T23:42:13;2.80;;;0.80;;
33108;SDS011;19481;51.118;6.940;2023-10-31T23:47:14;1.00;;;1.00;;
33108;SDS011;19481;51.118;6.940;2023-10-31T23:52:17;0.82;;;0.82;;
33108;SDS011;19481;51.118;6.940;2023-10-31T23:57:19;1.10;;;0.90;;
